createdAt,value
2022-11-03T00:02:00.612Z,40.30
2022-11-03T00:04:30.981Z,40.30
2022-11-03T00:06:59.428Z,39.90
2022-11-03T00:09:28.202Z,40.10
2022-11-03T00:12:06.587Z,40.10
2022-11-03T00:14:35.448Z,40.10
2022-11-03T00:17:04.023Z,40.20
2022-11-03T00:19:33.822Z,40.30
2022-11-03T00:22:02.301Z,40.00
2022-11-03T00:24:30.859Z,40.00
2022-11-03T00:26:59.590Z,40.00
2022-11-03T00:29:28.052Z,40.10
2022-11-03T00:31:56.510Z,39.90
2022-11-03T00:34:25.033Z,40.10
2022-11-03T00:36:54.904Z,40.20
2022-11-03T00:39:23.448Z,40.30
2022-11-03T00:41:51.983Z,40.40
2022-11-03T00:44:20.446Z,40.40
2022-11-03T00:46:48.908Z,40.40
2022-11-03T00:49:17.869Z,40.50
2022-11-03T00:51:46.347Z,40.50
2022-11-03T00:54:16.280Z,40.60
2022-11-03T00:56:45.265Z,40.70
2022-11-03T00:59:13.755Z,40.70
2022-11-03T01:01:47.252Z,40.80
2022-11-03T01:04:37.831Z,40.80
2022-11-03T01:07:07.764Z,40.70
2022-11-03T01:09:40.408Z,40.60
2022-11-03T01:12:12.653Z,40.60
2022-11-03T01:14:44.559Z,40.70
2022-11-03T01:17:15.950Z,40.50
2022-11-03T01:19:44.905Z,40.40
2022-11-03T01:22:14.898Z,40.40
2022-11-03T01:24:45.779Z,40.50
2022-11-03T01:27:20.579Z,40.60
2022-11-03T01:29:52.298Z,40.60
2022-11-03T01:32:20.740Z,40.60
2022-11-03T01:34:49.140Z,40.70
2022-11-03T01:37:17.671Z,40.80
2022-11-03T01:39:47.573Z,40.90
2022-11-03T01:42:16.031Z,40.90
2022-11-03T01:44:49.783Z,40.70
2022-11-03T01:47:28.083Z,40.50
2022-11-03T01:50:02.969Z,40.40
2022-11-03T01:52:38.640Z,40.30
2022-11-03T01:55:17.126Z,40.20
2022-11-03T01:57:52.763Z,40.20
2022-11-03T02:00:22.033Z,40.50
2022-11-03T02:02:52.051Z,40.70
2022-11-03T02:05:22.991Z,40.80
2022-11-03T02:07:57.210Z,41.00
2022-11-03T02:10:27.443Z,41.10
2022-11-03T02:12:55.834Z,41.10
2022-11-03T02:15:25.934Z,41.20
2022-11-03T02:17:57.596Z,41.20
2022-11-03T02:20:29.488Z,41.20
2022-11-03T02:23:29.544Z,41.20
2022-11-03T02:26:00.727Z,41.00
2022-11-03T02:28:32.970Z,40.90
2022-11-03T02:31:12.264Z,41.10
2022-11-03T02:33:59.681Z,41.00
2022-11-03T02:36:35.113Z,41.00
2022-11-03T02:39:10.869Z,41.20
2022-11-03T02:41:43.000Z,41.10
2022-11-03T02:44:18.441Z,41.20
2022-11-03T02:46:50.302Z,41.20
2022-11-03T02:49:19.411Z,41.20
2022-11-03T02:51:47.878Z,41.20
2022-11-03T02:54:23.578Z,41.10
2022-11-03T02:57:00.677Z,41.20
2022-11-03T02:59:35.848Z,41.30
2022-11-03T03:02:10.811Z,41.30
2022-11-03T03:04:42.813Z,41.40
2022-11-03T03:07:18.528Z,41.50
2022-11-03T03:09:56.234Z,41.60
2022-11-03T03:12:29.038Z,41.70
2022-11-03T03:15:00.617Z,41.80
2022-11-03T03:17:38.742Z,41.90
2022-11-03T03:20:16.331Z,41.90
2022-11-03T03:22:50.523Z,41.90
2022-11-03T03:25:28.054Z,41.90
2022-11-03T03:28:05.790Z,42.10
2022-11-03T03:30:37.593Z,42.30
2022-11-03T03:33:09.440Z,43.20
2022-11-03T03:35:43.471Z,42.60
2022-11-03T03:38:17.931Z,42.70
2022-11-03T03:40:53.347Z,42.80
2022-11-03T03:43:26.874Z,42.90
2022-11-03T03:46:03.408Z,42.90
2022-11-03T03:48:31.994Z,43.10
2022-11-03T03:51:03.089Z,43.20
2022-11-03T03:53:32.408Z,43.30
2022-11-03T03:56:01.260Z,43.30
2022-11-03T03:58:31.144Z,43.50
2022-11-03T04:00:59.681Z,43.60
2022-11-03T04:03:29.364Z,43.70
2022-11-03T04:05:58.000Z,43.90
2022-11-03T04:08:26.698Z,43.90
2022-11-03T04:11:12.684Z,43.70
2022-11-03T04:13:59.881Z,43.70
2022-11-03T04:16:45.832Z,43.70
2022-11-03T04:19:31.799Z,43.80
2022-11-03T04:22:18.167Z,43.70
2022-11-03T04:24:48.648Z,43.50
2022-11-03T04:27:33.235Z,43.70
2022-11-03T04:30:15.407Z,43.90
2022-11-03T04:32:45.372Z,43.90
2022-11-03T04:35:20.597Z,43.90
2022-11-03T04:37:57.051Z,43.80
2022-11-03T04:40:25.696Z,43.50
2022-11-03T04:42:54.379Z,43.50
2022-11-03T04:45:31.329Z,43.60
2022-11-03T04:48:03.218Z,43.70
2022-11-03T04:50:31.657Z,43.80
2022-11-03T04:53:01.116Z,44.10
2022-11-03T04:55:29.588Z,44.10
2022-11-03T04:58:03.809Z,44.10
2022-11-03T05:00:33.805Z,44.20
2022-11-03T05:03:02.613Z,44.30
2022-11-03T05:05:31.090Z,44.30
2022-11-03T05:08:00.464Z,44.30
2022-11-03T05:10:30.833Z,44.30
2022-11-03T05:13:02.096Z,44.30
2022-11-03T05:15:37.002Z,44.30
2022-11-03T05:18:21.231Z,44.30
2022-11-03T05:20:57.772Z,44.10
2022-11-03T05:23:30.854Z,44.70
2022-11-03T05:26:00.546Z,44.20
2022-11-03T05:28:35.061Z,44.30
2022-11-03T05:31:25.494Z,44.40
2022-11-03T05:33:58.604Z,44.50
2022-11-03T05:36:31.715Z,44.60
2022-11-03T05:39:23.289Z,44.50
2022-11-03T05:41:51.805Z,44.60
2022-11-03T05:44:33.595Z,44.60
2022-11-03T05:47:10.214Z,44.30
2022-11-03T05:49:38.842Z,44.20
2022-11-03T05:52:17.015Z,44.30
2022-11-03T05:54:45.607Z,44.30
2022-11-03T05:57:17.213Z,44.30
2022-11-03T05:59:49.130Z,44.30
2022-11-03T06:02:39.177Z,44.40
2022-11-03T06:05:19.413Z,44.30
2022-11-03T06:07:49.674Z,44.20
2022-11-03T06:10:29.667Z,43.90
2022-11-03T06:13:03.700Z,43.90
2022-11-03T06:15:36.101Z,43.80
2022-11-03T06:18:16.323Z,44.00
2022-11-03T06:20:51.990Z,43.90
2022-11-03T06:23:21.902Z,43.90
2022-11-03T06:25:53.831Z,43.80
2022-11-03T06:28:36.883Z,43.90
2022-11-03T06:31:08.234Z,43.90
2022-11-03T06:33:38.192Z,43.90
2022-11-03T06:36:19.879Z,44.00
2022-11-03T06:38:55.713Z,44.00
2022-11-03T06:41:28.864Z,44.00
2022-11-03T06:43:58.609Z,43.90
2022-11-03T06:46:28.689Z,43.90
2022-11-03T06:49:04.320Z,43.90
2022-11-03T06:51:37.149Z,43.80
2022-11-03T06:54:11.187Z,43.80
2022-11-03T06:56:39.843Z,43.70
2022-11-03T06:59:15.429Z,43.70
2022-11-03T07:01:45.755Z,43.80
2022-11-03T07:04:20.964Z,43.70
2022-11-03T07:06:53.336Z,43.60
2022-11-03T07:09:26.298Z,43.40
2022-11-03T07:11:58.775Z,43.10
2022-11-03T07:14:30.802Z,43.20
2022-11-03T07:17:03.586Z,43.40
2022-11-03T07:19:37.722Z,43.50
2022-11-03T07:22:16.298Z,43.50
2022-11-03T07:24:48.388Z,43.90
2022-11-03T07:27:23.447Z,44.40
2022-11-03T07:29:54.552Z,44.60
2022-11-03T07:32:27.858Z,44.70
2022-11-03T07:35:12.869Z,44.60
2022-11-03T07:37:41.427Z,44.50
2022-11-03T07:40:17.298Z,44.50
2022-11-03T07:42:46.341Z,44.80
2022-11-03T07:45:39.412Z,44.70
2022-11-03T07:48:21.714Z,45.00
2022-11-03T07:50:55.153Z,45.10
2022-11-03T07:53:34.754Z,45.30
2022-11-03T07:56:14.478Z,45.70
2022-11-03T07:58:44.647Z,45.90
2022-11-03T08:01:27.195Z,46.30
2022-11-03T08:04:01.871Z,46.30
2022-11-03T08:06:31.984Z,46.00
2022-11-03T08:09:00.778Z,46.20
2022-11-03T08:11:29.957Z,46.20
2022-11-03T08:13:58.634Z,46.40
2022-11-03T08:16:27.445Z,46.30
2022-11-03T08:18:55.963Z,45.60
2022-11-03T08:21:24.726Z,45.50
2022-11-03T08:23:54.753Z,45.70
2022-11-03T08:26:24.046Z,45.80
2022-11-03T08:28:53.261Z,46.00
2022-11-03T08:31:21.847Z,46.10
2022-11-03T08:33:50.304Z,46.60
2022-11-03T08:36:20.025Z,47.40
2022-11-03T08:38:48.472Z,48.10
2022-11-03T08:41:18.453Z,48.60
2022-11-03T08:43:46.987Z,48.30
2022-11-03T08:46:17.954Z,48.20
2022-11-03T08:48:47.314Z,48.30
2022-11-03T08:51:16.757Z,48.80
2022-11-03T08:53:46.371Z,47.90
2022-11-03T08:56:19.017Z,47.90
2022-11-03T08:58:50.348Z,48.40
2022-11-03T09:01:19.057Z,48.40
2022-11-03T09:03:47.592Z,48.10
2022-11-03T09:06:16.415Z,47.80
2022-11-03T09:11:33.327Z,48.00
2022-11-03T09:14:03.302Z,48.00
2022-11-03T09:16:31.974Z,47.80
2022-11-03T09:19:00.458Z,47.60
2022-11-03T09:21:28.955Z,46.90
2022-11-03T09:23:59.458Z,46.40
2022-11-03T09:26:28.070Z,45.80
2022-11-03T09:28:56.479Z,46.20
2022-11-03T09:31:28.640Z,46.00
2022-11-03T09:33:57.586Z,46.20
2022-11-03T09:36:26.078Z,46.00
2022-11-03T09:38:54.438Z,45.80
2022-11-03T09:41:27.793Z,45.50
2022-11-03T09:44:13.562Z,45.20
2022-11-03T09:46:43.563Z,43.50
2022-11-03T09:49:15.721Z,44.20
2022-11-03T09:51:45.620Z,44.20
2022-11-03T09:54:17.622Z,43.80
2022-11-03T09:56:47.338Z,44.20
2022-11-03T09:59:18.848Z,43.80
2022-11-03T10:01:53.582Z,42.60
2022-11-03T10:04:28.466Z,42.60
2022-11-03T10:06:58.085Z,42.60
2022-11-03T10:09:30.168Z,41.90
2022-11-03T10:11:58.789Z,41.70
2022-11-03T10:14:27.382Z,41.60
2022-11-03T10:17:01.160Z,40.30
2022-11-03T10:19:32.256Z,40.20
2022-11-03T10:22:00.869Z,40.70
2022-11-03T10:24:29.466Z,40.70
2022-11-03T10:26:58.180Z,39.90
2022-11-03T10:29:28.779Z,39.80
2022-11-03T10:32:00.665Z,40.10
2022-11-03T10:34:36.558Z,39.40
2022-11-03T10:37:25.362Z,39.30
2022-11-03T10:39:55.668Z,39.20
2022-11-03T10:42:30.595Z,38.90
2022-11-03T10:45:17.956Z,38.00
2022-11-03T10:48:05.731Z,38.70
2022-11-03T10:50:34.552Z,38.10
2022-11-03T10:53:05.256Z,37.50
2022-11-03T10:55:34.013Z,36.60
2022-11-03T10:58:02.520Z,36.10
2022-11-03T11:00:33.364Z,36.10
2022-11-03T11:03:03.428Z,36.30
2022-11-03T11:05:32.011Z,37.30
2022-11-03T11:08:02.385Z,38.00
2022-11-03T11:10:35.041Z,38.20
2022-11-03T11:13:27.634Z,38.30
2022-11-03T11:15:59.059Z,38.20
2022-11-03T11:19:14.814Z,38.10
2022-11-03T11:22:01.744Z,38.10
2022-11-03T11:24:59.640Z,38.60
2022-11-03T11:28:12.833Z,39.20
2022-11-03T11:31:31.059Z,39.40
2022-11-03T11:34:43.062Z,39.70
2022-11-03T11:37:36.009Z,40.50
2022-11-03T11:40:14.072Z,40.70
2022-11-03T11:43:27.659Z,40.60
2022-11-03T11:46:41.222Z,40.00
2022-11-03T11:49:20.362Z,40.50
2022-11-03T11:51:50.272Z,40.90
2022-11-03T11:54:22.215Z,40.80
2022-11-03T11:56:51.810Z,40.20
2022-11-03T11:59:26.016Z,40.00
2022-11-03T12:01:57.927Z,40.00
2022-11-03T12:04:31.556Z,39.60
2022-11-03T12:07:02.709Z,39.20
2022-11-03T12:09:31.214Z,39.30
2022-11-03T12:12:08.295Z,38.80
2022-11-03T12:14:39.352Z,38.60
2022-11-03T12:17:33.202Z,38.10
2022-11-03T12:20:02.087Z,38.50
2022-11-03T12:22:44.147Z,38.80
2022-11-03T12:25:37.193Z,38.90
2022-11-03T12:28:06.457Z,39.00
2022-11-03T12:30:39.709Z,39.40
2022-11-03T12:33:08.988Z,39.80
2022-11-03T12:35:38.372Z,39.70
2022-11-03T12:38:08.455Z,40.00
2022-11-03T12:40:36.939Z,40.10
2022-11-03T12:43:05.745Z,39.80
2022-11-03T12:45:34.425Z,39.80
2022-11-03T12:48:17.130Z,40.30
2022-11-03T12:50:48.877Z,40.20
2022-11-03T12:53:18.700Z,39.70
2022-11-03T12:55:47.126Z,39.50
2022-11-03T12:58:15.594Z,39.90
2022-11-03T13:00:49.849Z,39.60
2022-11-03T13:03:22.364Z,39.30
2022-11-03T13:05:53.590Z,38.80
2022-11-03T13:08:23.546Z,38.80
2022-11-03T13:10:52.145Z,38.90
2022-11-03T13:13:20.652Z,39.10
2022-11-03T13:15:49.134Z,39.20
2022-11-03T13:18:17.643Z,39.10
2022-11-03T13:20:46.280Z,39.60
2022-11-03T13:23:17.493Z,39.90
2022-11-03T13:25:50.345Z,39.80
2022-11-03T13:28:18.908Z,40.80
2022-11-03T13:30:47.695Z,39.70
2022-11-03T13:33:16.140Z,40.50
2022-11-03T13:35:44.728Z,40.50
2022-11-03T13:38:13.179Z,40.80
2022-11-03T13:41:01.140Z,41.20
2022-11-03T13:43:31.531Z,41.10
2022-11-03T13:46:02.587Z,41.50
2022-11-03T13:51:21.557Z,40.50
2022-11-03T13:59:28.896Z,40.50
2022-11-03T14:04:46.888Z,40.90
2022-11-03T14:07:15.573Z,41.40
2022-11-03T14:09:44.242Z,41.60
2022-11-03T14:12:30.219Z,41.50
2022-11-03T14:15:00.903Z,41.60
2022-11-03T14:17:30.009Z,41.60
2022-11-03T14:20:04.267Z,41.90
2022-11-03T14:22:33.955Z,42.30
2022-11-03T14:25:02.935Z,42.70
2022-11-03T14:27:34.841Z,43.10
2022-11-03T14:30:06.089Z,43.40
2022-11-03T14:32:34.610Z,43.80
2022-11-03T14:35:03.162Z,44.30
2022-11-03T14:37:31.779Z,44.80
2022-11-03T14:40:00.431Z,45.30
2022-11-03T14:42:27.936Z,45.70
2022-11-03T14:44:56.630Z,45.80
2022-11-03T14:47:26.762Z,45.90
2022-11-03T14:49:55.268Z,45.80
2022-11-03T14:52:23.697Z,46.40
2022-11-03T14:54:52.278Z,45.80
2022-11-03T14:57:20.769Z,45.80
2022-11-03T14:59:53.181Z,45.60
2022-11-03T15:02:22.114Z,46.50
2022-11-03T15:04:54.774Z,46.20
2022-11-03T15:07:23.326Z,46.50
2022-11-03T15:09:51.838Z,47.00
2022-11-03T15:12:20.396Z,46.50
2022-11-03T15:14:48.830Z,46.30
2022-11-03T15:17:17.370Z,46.00
2022-11-03T15:19:45.825Z,45.70
2022-11-03T15:22:15.895Z,45.70
2022-11-03T15:27:34.244Z,45.20
2022-11-03T15:30:02.840Z,45.20
2022-11-03T15:32:36.186Z,45.70
2022-11-03T15:35:05.778Z,46.00
2022-11-03T15:37:35.673Z,46.10
2022-11-03T15:40:04.612Z,46.30
2022-11-03T15:42:33.081Z,46.60
2022-11-03T15:45:01.555Z,46.80
2022-11-03T15:47:30.040Z,47.70
2022-11-03T15:49:58.525Z,47.00
2022-11-03T15:52:27.148Z,47.60
2022-11-03T15:54:57.160Z,47.60
2022-11-03T15:57:25.711Z,47.50
2022-11-03T15:59:57.749Z,47.50
2022-11-03T16:02:40.874Z,47.30
2022-11-03T16:05:11.561Z,47.10
2022-11-03T16:07:40.253Z,46.80
2022-11-03T16:10:10.961Z,46.70
2022-11-03T16:12:39.465Z,46.50
2022-11-03T16:15:10.358Z,46.60
2022-11-03T16:17:44.300Z,46.50
2022-11-03T16:20:14.219Z,46.40
2022-11-03T16:22:42.780Z,46.30
2022-11-03T16:25:16.727Z,46.40
2022-11-03T16:27:46.555Z,46.80
2022-11-03T16:30:15.416Z,47.20
2022-11-03T16:32:44.029Z,47.40
2022-11-03T16:35:12.526Z,47.50
2022-11-03T16:37:41.112Z,47.30
2022-11-03T16:40:17.976Z,47.10
2022-11-03T16:42:48.428Z,47.00
2022-11-03T16:45:20.519Z,47.10
2022-11-03T16:47:51.109Z,47.00
2022-11-03T16:50:20.822Z,46.90
2022-11-03T16:52:50.882Z,46.70
2022-11-03T16:55:21.617Z,46.40
2022-11-03T16:57:50.297Z,46.40
2022-11-03T17:00:21.138Z,46.40
2022-11-03T17:02:50.236Z,46.10
2022-11-03T17:05:22.044Z,46.10
2022-11-03T17:07:54.004Z,46.10
2022-11-03T17:10:24.886Z,46.30
2022-11-03T17:12:53.630Z,46.20
2022-11-03T17:15:24.155Z,46.10
2022-11-03T17:17:52.864Z,46.10
2022-11-03T17:20:21.764Z,46.20
2022-11-03T17:22:50.348Z,46.80
2022-11-03T17:25:19.339Z,47.00
2022-11-03T17:27:53.833Z,47.30
2022-11-03T17:30:25.359Z,47.80
2022-11-03T17:32:57.379Z,48.10
2022-11-03T17:35:36.219Z,48.30
2022-11-03T17:38:13.804Z,48.70
2022-11-03T17:40:45.342Z,48.80
2022-11-03T17:43:23.019Z,48.70
2022-11-03T17:45:51.560Z,48.70
2022-11-03T17:48:20.085Z,48.60
2022-11-03T17:50:53.351Z,48.60
2022-11-03T17:53:26.615Z,48.50
2022-11-03T17:56:27.723Z,49.00
2022-11-03T17:58:47.446Z,48.30
2022-11-03T18:01:25.077Z,48.30
2022-11-03T18:03:53.839Z,48.10
2022-11-03T18:06:23.060Z,47.90
2022-11-03T18:08:51.715Z,47.70
2022-11-03T18:11:46.688Z,47.80
2022-11-03T18:14:17.748Z,47.60
2022-11-03T18:16:46.739Z,47.50
2022-11-03T18:19:17.631Z,47.20
2022-11-03T18:21:46.585Z,47.00
2022-11-03T18:24:17.673Z,47.00
2022-11-03T18:26:46.391Z,46.90
2022-11-03T18:29:16.517Z,46.60
2022-11-03T18:31:49.864Z,46.80
2022-11-03T18:34:23.537Z,46.80
2022-11-03T18:36:55.348Z,46.70
2022-11-03T18:39:27.348Z,46.70
2022-11-03T18:41:56.571Z,46.70
2022-11-03T18:44:29.405Z,46.60
2022-11-03T18:46:59.586Z,46.70
2022-11-03T18:49:30.241Z,46.50
2022-11-03T18:52:03.856Z,46.30
2022-11-03T18:54:39.184Z,46.40
2022-11-03T18:57:10.047Z,46.50
2022-11-03T18:59:44.814Z,46.60
2022-11-03T19:02:19.749Z,46.90
2022-11-03T19:04:48.959Z,46.90
2022-11-03T19:07:24.294Z,47.00
2022-11-03T19:09:55.015Z,47.00
2022-11-03T19:12:23.923Z,47.10
2022-11-03T19:14:53.896Z,47.20
2022-11-03T19:17:25.319Z,47.40
2022-11-03T19:19:54.623Z,47.60
2022-11-03T19:22:24.433Z,47.50
2022-11-03T19:24:53.015Z,47.40
2022-11-03T19:27:29.998Z,47.30
2022-11-03T19:30:03.780Z,47.40
2022-11-03T19:32:36.943Z,47.40
2022-11-03T19:35:10.256Z,47.40
2022-11-03T19:37:38.967Z,47.60
2022-11-03T19:40:12.680Z,47.80
2022-11-03T19:42:40.198Z,48.30
2022-11-03T19:45:15.996Z,49.10
2022-11-03T19:48:18.153Z,49.70
2022-11-03T19:50:42.512Z,50.00
2022-11-03T19:53:20.028Z,50.40
2022-11-03T19:55:49.541Z,50.50
2022-11-03T19:58:21.574Z,50.50
2022-11-03T20:00:54.670Z,50.40
2022-11-03T20:03:24.187Z,50.10
2022-11-03T20:05:56.130Z,50.00
2022-11-03T20:08:28.261Z,49.50
2022-11-03T20:10:57.144Z,49.50
2022-11-03T20:13:31.328Z,49.30
2022-11-03T20:16:01.721Z,49.20
2022-11-03T20:18:30.380Z,49.10
2022-11-03T20:20:59.876Z,49.00
2022-11-03T20:23:32.093Z,49.00
2022-11-03T20:26:01.662Z,49.00
2022-11-03T20:28:33.075Z,49.10
2022-11-03T20:31:03.921Z,49.00
2022-11-03T20:33:32.834Z,50.40
2022-11-03T20:36:02.083Z,50.90
2022-11-03T20:38:31.626Z,51.10
2022-11-03T20:41:05.333Z,50.70
2022-11-03T20:43:38.598Z,50.50
2022-11-03T20:46:24.050Z,50.50
2022-11-03T20:48:55.337Z,50.50
2022-11-03T20:51:26.300Z,50.40
2022-11-03T20:53:55.777Z,50.20
2022-11-03T20:56:28.425Z,50.00
2022-11-03T20:58:58.193Z,51.00
2022-11-03T21:01:33.188Z,52.00
2022-11-03T21:04:03.627Z,52.10
2022-11-03T21:06:34.214Z,52.10
2022-11-03T21:09:03.051Z,51.70
2022-11-03T21:11:39.903Z,52.00
2022-11-03T21:14:16.950Z,51.80
2022-11-03T21:17:04.234Z,51.70
2022-11-03T21:19:57.245Z,51.50
2022-11-03T21:25:24.650Z,51.00
2022-11-03T21:27:54.757Z,50.60
2022-11-03T21:30:24.538Z,50.40
2022-11-03T21:32:54.529Z,50.10
2022-11-03T21:35:24.096Z,49.80
2022-11-03T21:37:52.764Z,49.60
2022-11-03T21:40:21.731Z,49.60
2022-11-03T21:43:07.628Z,49.40
2022-11-03T21:45:36.157Z,49.00
2022-11-03T21:48:24.552Z,49.30
2022-11-03T21:50:53.160Z,49.30
2022-11-03T21:53:22.066Z,48.90
2022-11-03T21:55:51.137Z,49.30
2022-11-03T21:58:19.663Z,49.60
2022-11-03T22:00:48.501Z,49.90
2022-11-03T22:03:18.410Z,50.10
2022-11-03T22:05:46.905Z,50.30
2022-11-03T22:08:15.441Z,50.20
2022-11-03T22:10:43.955Z,50.00
2022-11-03T22:13:12.792Z,50.00
2022-11-03T22:15:59.035Z,49.80
2022-11-03T22:18:28.895Z,49.90
2022-11-03T22:21:16.934Z,50.30
2022-11-03T22:24:02.821Z,51.00
2022-11-03T22:26:48.802Z,52.00
2022-11-03T22:29:34.806Z,52.90
2022-11-03T22:32:03.513Z,53.10
2022-11-03T22:34:56.136Z,53.10
2022-11-03T22:37:24.627Z,52.80
2022-11-03T22:40:10.590Z,52.20
2022-11-03T22:42:56.495Z,52.10
2022-11-03T22:45:42.492Z,51.90
2022-11-03T22:48:12.723Z,51.80
2022-11-03T22:50:42.610Z,51.90
2022-11-03T22:53:36.813Z,51.90
2022-11-03T22:56:05.627Z,52.00
2022-11-03T22:58:34.791Z,52.80
2022-11-03T23:01:09.019Z,53.10
2022-11-03T23:03:40.063Z,53.50
2022-11-03T23:06:12.119Z,53.90
2022-11-03T23:08:43.405Z,54.30
2022-11-03T23:11:17.253Z,54.90
2022-11-03T23:13:47.866Z,55.20
2022-11-03T23:16:19.432Z,55.10
2022-11-03T23:19:06.139Z,55.30
2022-11-03T23:21:36.954Z,55.10
2022-11-03T23:24:23.896Z,55.40
2022-11-03T23:26:52.749Z,55.80
2022-11-03T23:29:21.267Z,56.80
2022-11-03T23:31:49.916Z,57.30
2022-11-03T23:34:18.915Z,58.20
2022-11-03T23:36:50.805Z,58.90
2022-11-03T23:39:21.659Z,60.00
2022-11-03T23:41:51.434Z,61.10
2022-11-03T23:44:20.053Z,61.20
2022-11-03T23:47:05.828Z,62.00
2022-11-03T23:49:34.415Z,61.80
2022-11-03T23:52:04.562Z,61.10
2022-11-03T23:54:33.262Z,61.60
2022-11-03T23:57:18.985Z,62.50
2022-11-03T23:59:47.479Z,61.80
